createdAt,value
2017-10-21T00:01:02.375Z,13.15
2017-10-21T00:03:29.879Z,14.45
2017-10-21T00:05:57.384Z,12.57
2017-10-21T00:08:25.671Z,13.43
2017-10-21T00:10:53.178Z,11.07
2017-10-21T00:13:20.707Z,10.95
2017-10-21T00:15:48.214Z,11.55
2017-10-21T00:18:15.744Z,12.40
2017-10-21T00:20:43.259Z,12.70
2017-10-21T00:23:11.549Z,13.43
2017-10-21T00:25:39.055Z,14.95
2017-10-21T00:28:06.587Z,10.10
2017-10-21T00:30:34.100Z,10.73
2017-10-21T00:33:02.393Z,12.70
2017-10-21T00:35:29.915Z,12.55
2017-10-21T00:37:57.448Z,11.80
2017-10-21T00:40:24.950Z,10.15
2017-10-21T00:42:52.478Z,9.45
2017-10-21T00:45:19.979Z,10.02
2017-10-21T00:47:48.254Z,7.82
2017-10-21T00:50:16.526Z,20.40
2017-10-21T00:52:44.820Z,8.98
2017-10-21T00:55:13.093Z,7.97
2017-10-21T00:57:41.383Z,9.75
2017-10-21T01:00:08.884Z,9.30
2017-10-21T01:02:36.383Z,10.98
2017-10-21T01:05:04.675Z,12.55
2017-10-21T01:07:32.184Z,10.35
2017-10-21T01:09:59.705Z,10.15
2017-10-21T01:12:27.223Z,12.93
2017-10-21T01:14:54.747Z,10.20
2017-10-21T01:17:22.261Z,8.35
2017-10-21T01:19:49.788Z,10.98
2017-10-21T01:22:17.297Z,17.55
2017-10-21T01:24:44.819Z,8.68
2017-10-21T01:27:12.323Z,8.73
2017-10-21T01:29:39.842Z,10.48
2017-10-21T01:32:08.110Z,12.43
2017-10-21T01:34:35.640Z,10.25
2017-10-21T01:37:03.143Z,11.93
2017-10-21T01:39:31.427Z,9.25
2017-10-21T01:41:58.939Z,11.45
2017-10-21T01:44:26.459Z,14.85
2017-10-21T01:46:53.968Z,11.48
2017-10-21T01:49:21.947Z,11.48
2017-10-21T01:51:50.237Z,13.20
2017-10-21T01:54:18.528Z,8.30
2017-10-21T01:56:46.791Z,11.95
2017-10-21T02:01:52.699Z,10.38
2017-10-21T02:04:20.259Z,15.90
2017-10-21T02:06:47.759Z,11.25
2017-10-21T02:09:15.258Z,9.93
2017-10-21T02:11:43.562Z,14.02
2017-10-21T02:14:11.076Z,15.57
2017-10-21T02:16:38.600Z,12.90
2017-10-21T02:19:06.116Z,11.18
2017-10-21T02:21:33.639Z,11.75
2017-10-21T02:24:01.159Z,10.43
2017-10-21T02:26:28.692Z,10.43
2017-10-21T02:28:57.264Z,12.52
2017-10-21T02:31:25.652Z,11.50
2017-10-21T02:33:54.162Z,15.32
2017-10-21T02:36:21.683Z,11.00
2017-10-21T02:38:49.948Z,13.88
2017-10-21T02:43:51.761Z,12.68
2017-10-21T02:46:19.289Z,8.90
2017-10-21T02:48:46.804Z,11.07
2017-10-21T02:51:14.335Z,10.80
2017-10-21T02:53:41.840Z,12.57
2017-10-21T02:56:09.363Z,10.98
2017-10-21T02:58:36.875Z,9.13
2017-10-21T03:01:04.402Z,9.35
2017-10-21T03:03:31.916Z,10.15
2017-10-21T03:05:59.438Z,12.43
2017-10-21T03:08:26.961Z,8.30
2017-10-21T03:10:54.514Z,10.18
2017-10-21T03:13:22.025Z,14.10
2017-10-21T03:15:49.542Z,9.95
2017-10-21T03:18:17.070Z,10.05
2017-10-21T03:20:45.334Z,8.43
2017-10-21T03:23:12.851Z,11.38
2017-10-21T03:25:40.363Z,10.63
2017-10-21T03:28:08.667Z,10.98
2017-10-21T03:30:43.049Z,14.10
2017-10-21T03:33:10.570Z,15.73
2017-10-21T03:35:38.084Z,10.05
2017-10-21T03:38:06.388Z,16.98
2017-10-21T03:40:33.883Z,12.77
2017-10-21T03:43:01.408Z,11.15
2017-10-21T03:45:29.687Z,11.63
2017-10-21T03:47:57.209Z,8.73
2017-10-21T03:50:24.714Z,9.70
2017-10-21T03:52:52.245Z,11.20
2017-10-21T03:55:19.767Z,12.65
2017-10-21T03:57:47.292Z,11.85
2017-10-21T04:00:14.801Z,11.25
2017-10-21T04:02:43.086Z,11.43
2017-10-21T04:05:10.595Z,9.65
2017-10-21T04:07:38.119Z,11.57
2017-10-21T04:10:05.635Z,12.10
2017-10-21T04:12:33.147Z,15.90
2017-10-21T04:15:00.652Z,10.95
2017-10-21T04:17:28.183Z,10.15
2017-10-21T04:19:55.698Z,18.83
2017-10-21T04:22:23.975Z,10.77
2017-10-21T04:24:52.263Z,8.57
2017-10-21T04:27:19.777Z,11.68
2017-10-21T04:29:47.312Z,13.02
2017-10-21T04:32:15.587Z,11.20
2017-10-21T04:34:43.114Z,10.60
2017-10-21T04:37:10.620Z,10.50
2017-10-21T04:39:38.136Z,15.15
2017-10-21T04:42:05.643Z,11.23
2017-10-21T04:44:33.155Z,8.98
2017-10-21T04:47:00.673Z,10.75
2017-10-21T04:49:28.202Z,12.20
2017-10-21T04:51:55.715Z,8.90
2017-10-21T04:54:24.000Z,10.48
2017-10-21T04:56:52.271Z,8.32
2017-10-21T04:59:20.567Z,18.23
2017-10-21T05:01:48.084Z,17.62
2017-10-21T05:04:15.610Z,13.85
2017-10-21T05:06:43.115Z,10.43
2017-10-21T05:09:11.411Z,16.58
2017-10-21T05:11:39.680Z,11.18
2017-10-21T05:14:07.975Z,12.88
2017-10-21T05:16:35.508Z,10.63
2017-10-21T05:19:03.807Z,9.48
2017-10-21T05:21:32.079Z,12.52
2017-10-21T05:23:59.606Z,12.30
2017-10-21T05:26:27.558Z,14.13
2017-10-21T05:28:55.063Z,17.23
2017-10-21T05:31:23.349Z,10.60
2017-10-21T05:33:50.851Z,12.73
2017-10-21T05:36:18.367Z,18.50
2017-10-21T05:38:45.873Z,14.80
2017-10-21T05:41:13.400Z,17.05
2017-10-21T05:43:40.902Z,13.75
2017-10-21T05:46:08.421Z,13.32
2017-10-21T05:48:35.939Z,12.60
2017-10-21T05:51:04.235Z,13.25
2017-10-21T05:53:31.735Z,12.48
2017-10-21T05:55:59.258Z,15.32
2017-10-21T05:58:26.804Z,12.45
2017-10-21T06:00:55.095Z,18.42
2017-10-21T06:03:22.605Z,13.05
2017-10-21T06:05:50.129Z,11.90
2017-10-21T06:08:17.631Z,15.48
2017-10-21T06:10:45.164Z,11.88
2017-10-21T06:13:12.680Z,11.40
2017-10-21T06:15:40.980Z,17.65
2017-10-21T06:18:08.483Z,10.32
2017-10-21T06:20:36.020Z,18.08
2017-10-21T06:23:03.521Z,13.35
2017-10-21T06:25:31.823Z,12.75
2017-10-21T06:27:59.344Z,13.57
2017-10-21T06:30:26.853Z,12.07
2017-10-21T06:32:54.376Z,10.32
2017-10-21T06:35:22.667Z,12.82
2017-10-21T06:37:50.975Z,12.90
2017-10-21T06:40:18.478Z,15.25
2017-10-21T06:42:46.065Z,11.75
2017-10-21T06:45:13.590Z,15.00
2017-10-21T06:47:41.164Z,11.75
2017-10-21T06:50:08.683Z,14.95
2017-10-21T06:52:36.210Z,11.50
2017-10-21T06:55:03.734Z,12.00
2017-10-21T06:57:31.258Z,13.00
2017-10-21T06:59:58.824Z,12.95
2017-10-21T07:02:26.357Z,14.45
2017-10-21T07:04:53.872Z,14.30
2017-10-21T07:07:21.417Z,12.13
2017-10-21T07:09:48.943Z,14.07
2017-10-21T07:12:16.580Z,15.07
2017-10-21T07:14:44.856Z,18.15
2017-10-21T07:17:13.145Z,15.02
2017-10-21T07:19:40.665Z,13.02
2017-10-21T07:22:08.246Z,15.57
2017-10-21T07:24:36.512Z,13.27
2017-10-21T07:27:04.027Z,17.00
2017-10-21T07:29:31.543Z,13.13
2017-10-21T07:31:59.059Z,16.92
2017-10-21T07:34:26.787Z,16.40
2017-10-21T07:36:54.307Z,16.20
2017-10-21T07:39:21.835Z,15.32
2017-10-21T07:41:50.540Z,11.93
2017-10-21T07:44:18.051Z,10.18
2017-10-21T07:46:45.567Z,16.77
2017-10-21T07:49:13.098Z,14.23
2017-10-21T07:51:40.614Z,18.23
2017-10-21T07:54:08.139Z,12.75
2017-10-21T07:56:35.646Z,12.18
2017-10-21T07:59:03.168Z,16.67
2017-10-21T08:01:30.678Z,15.32
2017-10-21T08:03:58.213Z,15.65
2017-10-21T08:06:25.723Z,16.55
2017-10-21T08:08:53.264Z,11.43
2017-10-21T08:11:20.792Z,19.58
2017-10-21T08:13:48.322Z,15.40
2017-10-21T08:16:15.863Z,19.55
2017-10-21T08:18:43.394Z,13.85
2017-10-21T08:21:10.895Z,11.05
2017-10-21T08:23:38.427Z,14.50
2017-10-21T08:26:05.930Z,13.43
2017-10-21T08:28:34.225Z,20.02
2017-10-21T08:31:01.755Z,12.07
2017-10-21T08:33:29.273Z,16.05
2017-10-21T08:35:56.795Z,12.93
2017-10-21T08:38:25.075Z,19.12
2017-10-21T08:40:53.354Z,20.58
2017-10-21T08:43:20.859Z,12.52
2017-10-21T08:45:48.383Z,11.98
2017-10-21T08:48:15.922Z,16.20
2017-10-21T08:50:44.400Z,14.43
2017-10-21T08:53:11.990Z,16.73
2017-10-21T08:55:39.525Z,12.52
2017-10-21T08:58:07.038Z,14.05
2017-10-21T09:00:34.600Z,14.73
2017-10-21T09:03:02.123Z,12.90
2017-10-21T09:05:29.683Z,16.15
2017-10-21T09:07:57.200Z,12.68
2017-10-21T09:10:24.727Z,21.87
2017-10-21T09:12:52.260Z,13.55
2017-10-21T09:15:19.810Z,11.65
2017-10-21T09:17:47.355Z,13.32
2017-10-21T09:20:14.944Z,25.73
2017-10-21T09:22:42.708Z,14.02
2017-10-21T09:25:10.302Z,19.95
2017-10-21T09:27:37.938Z,16.67
2017-10-21T09:30:05.537Z,12.95
2017-10-21T09:32:33.071Z,16.55
2017-10-21T09:35:00.594Z,16.17
2017-10-21T09:37:28.147Z,11.27
2017-10-21T09:39:55.756Z,18.27
2017-10-21T09:42:23.372Z,19.98
2017-10-21T09:44:50.939Z,15.05
2017-10-21T09:47:19.317Z,12.95
2017-10-21T09:49:46.940Z,16.52
2017-10-21T09:52:14.568Z,13.80
2017-10-21T09:54:42.167Z,15.55
2017-10-21T09:57:09.776Z,13.35
2017-10-21T09:59:37.303Z,16.12
2017-10-21T10:02:04.908Z,13.18
2017-10-21T10:04:32.495Z,15.73
2017-10-21T10:07:00.942Z,14.35
2017-10-21T10:09:28.609Z,15.15
2017-10-21T10:11:56.312Z,12.73
2017-10-21T10:14:23.956Z,21.45
2017-10-21T10:16:51.502Z,13.77
2017-10-21T10:19:19.091Z,13.82
2017-10-21T10:21:46.812Z,18.85
2017-10-21T10:24:14.495Z,13.75
2017-10-21T10:26:42.109Z,14.20
2017-10-21T10:29:09.786Z,15.98
2017-10-21T10:31:37.464Z,25.98
2017-10-21T10:34:05.125Z,11.80
2017-10-21T10:36:32.739Z,21.12
2017-10-21T10:39:00.382Z,23.20
2017-10-21T10:41:28.004Z,14.93
2017-10-21T10:43:55.749Z,10.52
2017-10-21T10:46:23.414Z,14.52
2017-10-21T10:48:50.981Z,15.57
2017-10-21T10:51:18.660Z,18.60
2017-10-21T10:53:46.295Z,12.48
2017-10-21T10:56:14.742Z,19.73
2017-10-21T10:58:42.310Z,18.23
2017-10-21T11:01:09.962Z,12.05
2017-10-21T11:03:37.518Z,11.25
2017-10-21T11:06:05.126Z,18.48
2017-10-21T11:08:32.870Z,16.65
2017-10-21T11:11:00.771Z,14.50
2017-10-21T11:13:28.323Z,12.65
2017-10-21T11:15:56.612Z,11.93
2017-10-21T11:18:24.181Z,14.35
2017-10-21T11:20:51.758Z,12.40
2017-10-21T11:23:19.369Z,15.32
2017-10-21T11:25:46.933Z,12.93
2017-10-21T11:28:15.219Z,12.35
2017-10-21T11:30:42.796Z,9.07
2017-10-21T11:33:10.427Z,10.80
2017-10-21T11:35:38.749Z,18.95
2017-10-21T11:38:06.298Z,20.62
2017-10-21T11:40:34.012Z,18.42
2017-10-21T11:43:03.203Z,9.32
2017-10-21T11:45:30.737Z,13.07
2017-10-21T11:47:59.354Z,9.13
2017-10-21T11:50:28.523Z,9.30
2017-10-21T11:52:56.082Z,15.48
2017-10-21T11:55:23.680Z,14.45
2017-10-21T11:57:52.099Z,10.25
2017-10-21T12:00:19.712Z,12.90
2017-10-21T12:02:47.352Z,13.25
2017-10-21T12:05:14.965Z,22.13
2017-10-21T12:07:42.546Z,18.05
2017-10-21T12:10:11.104Z,9.40
2017-10-21T12:12:39.442Z,8.02
2017-10-21T12:15:06.974Z,11.07
2017-10-21T12:17:34.475Z,15.63
2017-10-21T12:20:02.348Z,18.45
2017-10-21T12:22:29.886Z,12.40
2017-10-21T12:24:57.467Z,12.82
2017-10-21T12:27:26.360Z,10.65
2017-10-21T12:29:53.878Z,10.88
2017-10-21T12:32:21.480Z,11.12
2017-10-21T12:34:49.036Z,14.60
2017-10-21T12:37:16.608Z,18.83
2017-10-21T12:39:44.232Z,19.35
2017-10-21T12:42:11.797Z,5.57
2017-10-21T12:44:39.377Z,8.07
2017-10-21T12:47:06.970Z,10.15
2017-10-21T12:49:34.484Z,9.02
2017-10-21T12:52:02.066Z,7.37
2017-10-21T12:54:29.663Z,4.25
2017-10-21T12:56:57.335Z,8.48
2017-10-21T12:59:25.019Z,5.10
2017-10-21T13:01:52.637Z,7.18
2017-10-21T13:04:20.296Z,9.25
2017-10-21T13:06:47.964Z,8.65
2017-10-21T13:09:15.507Z,11.75
2017-10-21T13:11:43.093Z,6.10
2017-10-21T13:14:10.709Z,9.40
2017-10-21T13:16:38.384Z,7.50
2017-10-21T13:19:05.963Z,8.25
2017-10-21T13:21:33.546Z,9.13
2017-10-21T13:24:01.185Z,9.15
2017-10-21T13:26:28.856Z,5.28
2017-10-21T13:28:56.547Z,7.43
2017-10-21T13:31:24.988Z,12.27
2017-10-21T13:33:53.333Z,8.73
2017-10-21T13:36:21.739Z,9.13
2017-10-21T13:38:50.052Z,5.18
2017-10-21T13:41:17.566Z,8.70
2017-10-21T13:43:45.102Z,7.90
2017-10-21T13:46:12.623Z,11.15
2017-10-21T13:48:40.201Z,10.63
2017-10-21T13:51:07.716Z,6.05
2017-10-21T13:53:36.000Z,7.22
2017-10-21T13:56:04.275Z,9.35
2017-10-21T13:58:32.567Z,11.77
2017-10-21T14:01:00.083Z,8.82
2017-10-21T14:03:27.605Z,6.60
2017-10-21T14:05:55.115Z,6.70
2017-10-21T14:08:22.674Z,5.45
2017-10-21T14:10:50.174Z,10.02
2017-10-21T14:13:17.699Z,12.10
2017-10-21T14:15:45.208Z,6.20
2017-10-21T14:18:12.738Z,9.63
2017-10-21T14:20:40.257Z,7.03
2017-10-21T14:23:07.783Z,7.07
2017-10-21T14:25:35.287Z,6.43
2017-10-21T14:28:02.811Z,7.15
2017-10-21T14:30:30.360Z,7.70
2017-10-21T14:32:57.912Z,8.57
2017-10-21T14:35:25.443Z,10.85
2017-10-21T14:37:53.731Z,9.57
2017-10-21T14:40:21.261Z,8.55
2017-10-21T14:42:48.784Z,13.75
2017-10-21T14:45:16.291Z,6.80
2017-10-21T14:47:44.595Z,16.83
2017-10-21T14:50:12.110Z,5.15
2017-10-21T14:52:39.658Z,5.65
2017-10-21T14:55:07.163Z,6.62
2017-10-21T14:57:34.691Z,7.60
2017-10-21T15:00:02.212Z,7.97
2017-10-21T15:02:29.747Z,10.63
2017-10-21T15:04:57.270Z,7.82
2017-10-21T15:07:24.793Z,6.57
2017-10-21T15:09:52.327Z,6.05
2017-10-21T15:12:19.859Z,10.63
2017-10-21T15:14:48.144Z,9.52
2017-10-21T15:17:16.434Z,6.15
2017-10-21T15:19:44.712Z,10.98
2017-10-21T15:22:12.245Z,10.68
2017-10-21T15:24:39.782Z,28.33
2017-10-21T15:27:07.294Z,7.72
2017-10-21T15:29:34.819Z,7.62
2017-10-21T15:32:03.104Z,11.77
2017-10-21T15:34:31.403Z,7.43
2017-10-21T15:36:58.903Z,5.62
2017-10-21T15:39:26.438Z,11.75
2017-10-21T15:41:53.979Z,10.82
2017-10-21T15:44:21.502Z,6.45
2017-10-21T15:46:49.031Z,8.80
2017-10-21T15:49:16.590Z,7.82
2017-10-21T15:51:44.115Z,8.88
2017-10-21T15:54:11.679Z,11.95
2017-10-21T15:56:39.187Z,17.92
2017-10-21T15:59:06.726Z,9.50
2017-10-21T16:01:34.250Z,7.82
2017-10-21T16:04:02.552Z,10.77
2017-10-21T16:06:30.071Z,15.70
2017-10-21T16:08:57.605Z,12.32
2017-10-21T16:11:25.113Z,9.13
2017-10-21T16:13:52.647Z,11.32
2017-10-21T16:16:20.154Z,11.02
2017-10-21T16:18:47.683Z,11.00
2017-10-21T16:21:15.959Z,15.27
2017-10-21T16:23:44.248Z,9.90
2017-10-21T16:26:11.767Z,11.73
2017-10-21T16:28:39.290Z,11.88
2017-10-21T16:31:06.810Z,9.15
2017-10-21T16:33:35.106Z,10.20
2017-10-21T16:36:02.624Z,13.57
2017-10-21T16:38:30.193Z,12.85
2017-10-21T16:40:57.715Z,11.85
2017-10-21T16:43:25.230Z,19.48
2017-10-21T16:45:53.533Z,16.75
2017-10-21T16:48:21.040Z,13.73
2017-10-21T16:50:48.575Z,14.65
2017-10-21T16:53:16.092Z,13.75
2017-10-21T16:55:43.617Z,13.35
2017-10-21T16:58:11.130Z,15.10
2017-10-21T17:00:38.665Z,19.58
2017-10-21T17:03:06.948Z,24.87
2017-10-21T17:05:34.477Z,20.55
2017-10-21T17:08:01.986Z,16.10
2017-10-21T17:10:29.511Z,15.38
2017-10-21T17:12:57.016Z,13.20
2017-10-21T17:15:24.539Z,9.55
2017-10-21T17:17:52.824Z,12.65
2017-10-21T17:20:20.341Z,17.00
2017-10-21T17:22:47.846Z,16.90
2017-10-21T17:25:15.366Z,10.70
2017-10-21T17:27:42.886Z,11.10
2017-10-21T17:30:10.416Z,14.23
2017-10-21T17:32:37.933Z,16.98
2017-10-21T17:35:05.503Z,12.65
2017-10-21T17:37:34.266Z,13.40
2017-10-21T17:40:01.804Z,11.35
2017-10-21T17:42:29.671Z,12.90
2017-10-21T17:44:57.194Z,13.65
2017-10-21T17:47:25.479Z,16.30
2017-10-21T17:49:53.049Z,16.62
2017-10-21T17:52:20.559Z,14.38
2017-10-21T17:54:48.084Z,17.90
2017-10-21T17:57:15.620Z,17.15
2017-10-21T17:59:43.188Z,15.65
2017-10-21T18:02:10.706Z,14.60
2017-10-21T18:04:38.231Z,14.57
2017-10-21T18:07:05.756Z,16.80
2017-10-21T18:09:34.051Z,20.37
2017-10-21T18:12:01.587Z,14.75
2017-10-21T18:14:29.097Z,19.67
2017-10-21T18:16:56.632Z,18.50
2017-10-21T18:19:24.147Z,18.48
2017-10-21T18:21:51.655Z,17.52
2017-10-21T18:24:19.205Z,16.30
2017-10-21T18:26:46.739Z,18.60
2017-10-21T18:29:14.301Z,31.65
2017-10-21T18:31:41.820Z,20.75
2017-10-21T18:34:09.366Z,18.10
2017-10-21T18:36:36.893Z,22.20
2017-10-21T18:39:05.183Z,20.50
2017-10-21T18:41:32.691Z,19.02
2017-10-21T18:44:00.262Z,19.42
2017-10-21T18:46:28.387Z,22.37
2017-10-21T18:48:55.916Z,15.88
2017-10-21T18:51:24.202Z,21.15
2017-10-21T18:53:51.736Z,16.73
2017-10-21T18:56:20.020Z,15.23
2017-10-21T18:58:48.326Z,15.68
2017-10-21T19:01:15.848Z,13.70
2017-10-21T19:03:43.395Z,16.80
2017-10-21T19:06:10.907Z,14.20
2017-10-21T19:08:38.412Z,17.48
2017-10-21T19:11:05.935Z,14.23
2017-10-21T19:13:34.250Z,14.18
2017-10-21T19:16:01.762Z,19.48
2017-10-21T19:18:29.292Z,15.77
2017-10-21T19:20:57.587Z,15.60
2017-10-21T19:23:25.104Z,13.00
2017-10-21T19:25:52.624Z,12.98
2017-10-21T19:28:20.139Z,13.25
2017-10-21T19:30:47.674Z,17.27
2017-10-21T19:33:15.174Z,14.65
2017-10-21T19:35:43.454Z,17.58
2017-10-21T19:38:11.733Z,13.70
2017-10-21T19:40:39.258Z,12.43
2017-10-21T19:43:06.776Z,13.18
2017-10-21T19:45:34.298Z,16.20
2017-10-21T19:48:02.568Z,13.32
2017-10-21T19:50:30.868Z,14.55
2017-10-21T19:52:58.371Z,15.57
2017-10-21T19:55:25.903Z,12.30
2017-10-21T19:57:53.412Z,14.68
2017-10-21T20:00:20.949Z,26.23
2017-10-21T20:02:48.455Z,19.75
2017-10-21T20:05:15.982Z,13.55
2017-10-21T20:07:43.495Z,20.70
2017-10-21T20:10:11.018Z,16.75
2017-10-21T20:12:39.304Z,50.12
2017-10-21T20:15:07.594Z,56.55
2017-10-21T20:17:35.112Z,41.25
2017-10-21T20:20:02.660Z,35.17
2017-10-21T20:22:30.176Z,32.28
2017-10-21T20:24:57.704Z,30.15
2017-10-21T20:27:25.207Z,24.52
2017-10-21T20:29:52.735Z,28.17
2017-10-21T20:32:21.011Z,21.40
2017-10-21T20:34:48.539Z,18.75
2017-10-21T20:37:16.051Z,24.70
2017-10-21T20:39:43.593Z,26.73
2017-10-21T20:42:11.899Z,31.42
2017-10-21T20:44:39.403Z,30.30
2017-10-21T20:47:06.946Z,27.65
2017-10-21T20:49:41.406Z,28.38
2017-10-21T20:52:09.721Z,26.80
2017-10-21T20:54:37.235Z,26.08
2017-10-21T20:57:04.763Z,26.25
2017-10-21T20:59:32.286Z,22.73
2017-10-21T21:01:59.815Z,17.42
2017-10-21T21:04:28.094Z,17.42
2017-10-21T21:06:56.447Z,16.10
2017-10-21T21:09:23.975Z,21.83
2017-10-21T21:11:52.259Z,32.97
2017-10-21T21:14:19.772Z,23.62
2017-10-21T21:16:48.058Z,15.80
2017-10-21T21:19:16.323Z,6.95
2017-10-21T21:21:44.630Z,4.62
2017-10-21T21:24:12.139Z,2.40
2017-10-21T21:26:39.658Z,2.20
2017-10-21T21:29:07.161Z,3.45
2017-10-21T21:31:34.687Z,2.60
2017-10-21T21:34:02.187Z,2.92
2017-10-21T21:36:29.711Z,1.70
2017-10-21T21:38:57.974Z,8.05
2017-10-21T21:41:25.627Z,2.47
2017-10-21T21:43:53.148Z,2.87
2017-10-21T21:46:20.659Z,1.25
2017-10-21T21:48:48.164Z,2.72
2017-10-21T21:51:15.695Z,3.00
2017-10-21T21:53:43.198Z,2.62
2017-10-21T21:56:11.475Z,4.95
2017-10-21T21:58:39.799Z,2.17
2017-10-21T22:01:07.340Z,3.85
2017-10-21T22:03:34.843Z,10.55
2017-10-21T22:06:02.375Z,2.20
2017-10-21T22:08:29.879Z,1.70
2017-10-21T22:10:57.403Z,1.30
2017-10-21T22:13:24.903Z,2.15
2017-10-21T22:15:53.186Z,3.12
2017-10-21T22:18:21.468Z,2.65
2017-10-21T22:20:49.002Z,3.28
2017-10-21T22:23:16.503Z,3.05
2017-10-21T22:25:44.052Z,3.72
2017-10-21T22:28:11.598Z,4.90
2017-10-21T22:30:39.883Z,3.28
2017-10-21T22:33:07.393Z,1.15
2017-10-21T22:35:34.914Z,3.08
2017-10-21T22:38:02.419Z,2.72
2017-10-21T22:40:29.939Z,2.03
2017-10-21T22:42:57.439Z,2.78
2017-10-21T22:45:24.964Z,3.85
2017-10-21T22:47:52.476Z,2.67
2017-10-21T22:50:19.998Z,8.75
2017-10-21T22:52:47.511Z,2.25
2017-10-21T22:55:15.814Z,1.25
2017-10-21T22:57:43.336Z,1.70
2017-10-21T23:00:10.880Z,5.20
2017-10-21T23:02:38.408Z,2.00
2017-10-21T23:05:05.912Z,1.92
2017-10-21T23:07:33.430Z,3.03
2017-10-21T23:10:00.926Z,3.85
2017-10-21T23:12:28.446Z,3.15
2017-10-21T23:14:55.949Z,4.87
2017-10-21T23:17:23.462Z,2.95
2017-10-21T23:19:50.962Z,5.47
2017-10-21T23:22:18.483Z,2.97
2017-10-21T23:24:45.987Z,1.40
2017-10-21T23:27:14.271Z,3.10
2017-10-21T23:29:42.546Z,5.25
2017-10-21T23:32:10.091Z,2.00
2017-10-21T23:34:37.586Z,2.30
2017-10-21T23:37:05.160Z,4.25
2017-10-21T23:39:32.666Z,3.30
2017-10-21T23:42:00.193Z,3.60
2017-10-21T23:44:28.503Z,3.62
2017-10-21T23:46:56.018Z,5.45
2017-10-21T23:49:23.543Z,3.50
2017-10-21T23:51:51.854Z,1.87
2017-10-21T23:54:19.355Z,8.90
2017-10-21T23:56:46.871Z,2.12
2017-10-21T23:59:14.381Z,5.35
